createdAt,value
2023-02-11T00:01:16.027Z,-1.06
2023-02-11T00:03:43.771Z,-1.09
2023-02-11T00:06:12.271Z,-1.04
2023-02-11T00:08:40.458Z,-1.05
2023-02-11T00:11:08.851Z,-1.15
2023-02-11T00:13:36.501Z,-1.22
2023-02-11T00:16:09.394Z,-1.25
2023-02-11T00:18:37.683Z,-1.33
2023-02-11T00:21:17.064Z,-1.38
2023-02-11T00:23:45.543Z,-1.44
2023-02-11T00:26:16.244Z,-1.41
2023-02-11T00:28:44.568Z,-1.42
2023-02-11T00:31:13.581Z,-1.48
2023-02-11T00:33:42.021Z,-1.45
2023-02-11T00:36:14.553Z,-1.42
2023-02-11T00:38:45.420Z,-1.34
2023-02-11T00:41:14.528Z,-1.29
2023-02-11T00:43:42.700Z,-1.22
2023-02-11T00:46:11.367Z,-1.15
2023-02-11T00:48:39.228Z,-1.18
2023-02-11T00:51:07.170Z,-1.16
2023-02-11T00:53:35.773Z,-1.07
2023-02-11T00:56:03.839Z,-1.06
2023-02-11T00:58:31.756Z,-1.03
2023-02-11T01:00:59.695Z,-0.99
2023-02-11T01:03:27.746Z,-0.94
2023-02-11T01:05:55.415Z,-0.95
2023-02-11T01:08:23.399Z,-0.91
2023-02-11T01:11:03.096Z,-0.89
2023-02-11T01:13:32.327Z,-0.93
2023-02-11T01:16:00.127Z,-0.93
2023-02-11T01:18:28.483Z,-0.92
2023-02-11T01:20:56.378Z,-0.92
2023-02-11T01:23:24.125Z,-0.98
2023-02-11T01:25:53.079Z,-1.07
2023-02-11T01:28:30.146Z,-1.14
2023-02-11T01:30:58.489Z,-1.15
2023-02-11T01:33:26.205Z,-1.18
2023-02-11T01:35:53.972Z,-1.17
2023-02-11T01:38:26.771Z,-1.18
2023-02-11T01:41:00.859Z,-1.22
2023-02-11T01:43:45.989Z,-1.20
2023-02-11T01:46:32.803Z,-1.16
2023-02-11T01:49:22.532Z,-1.15
2023-02-11T01:52:10.994Z,-1.10
2023-02-11T01:55:02.400Z,-1.07
2023-02-11T01:57:32.642Z,-1.06
2023-02-11T02:00:22.631Z,-1.11
2023-02-11T02:03:03.480Z,-1.30
2023-02-11T02:06:19.340Z,-1.22
2023-02-11T02:09:00.395Z,-1.23
2023-02-11T02:11:28.329Z,-1.35
2023-02-11T02:13:56.124Z,-1.45
2023-02-11T02:16:30.830Z,-1.53
2023-02-11T02:19:38.850Z,-1.61
2023-02-11T02:22:28.102Z,-1.63
2023-02-11T02:25:16.968Z,-1.63
2023-02-11T02:28:13.740Z,-1.65
2023-02-11T02:31:06.290Z,-1.65
2023-02-11T02:33:51.272Z,-1.59
2023-02-11T02:36:29.300Z,-1.61
2023-02-11T02:39:03.099Z,-1.74
2023-02-11T02:41:36.286Z,-1.80
2023-02-11T02:44:04.559Z,-1.86
2023-02-11T02:46:33.917Z,-1.91
2023-02-11T02:49:02.270Z,-1.99
2023-02-11T02:51:48.082Z,-2.05
2023-02-11T02:54:53.699Z,-2.15
2023-02-11T02:57:41.469Z,-2.24
2023-02-11T03:00:34.228Z,-2.28
2023-02-11T03:03:25.482Z,-2.20
2023-02-11T03:05:59.757Z,-2.16
2023-02-11T03:08:44.694Z,-2.08
2023-02-11T03:11:13.568Z,-1.92
2023-02-11T03:13:42.789Z,-1.80
2023-02-11T03:16:20.459Z,-1.79
2023-02-11T03:18:54.004Z,-1.80
2023-02-11T03:21:23.690Z,-1.83
2023-02-11T03:23:57.440Z,-1.86
2023-02-11T03:26:36.910Z,-1.91
2023-02-11T03:29:16.527Z,-2.03
2023-02-11T03:31:47.103Z,-2.12
2023-02-11T03:34:23.099Z,-2.12
2023-02-11T03:37:16.828Z,-2.16
2023-02-11T03:39:56.727Z,-2.19
2023-02-11T03:42:29.971Z,-2.09
2023-02-11T03:45:05.240Z,-2.01
2023-02-11T03:47:37.207Z,-1.92
2023-02-11T03:50:09.449Z,-1.81
2023-02-11T03:52:39.320Z,-1.75
2023-02-11T03:55:13.601Z,-1.68
2023-02-11T03:57:41.397Z,-1.60
2023-02-11T04:00:10.496Z,-1.54
2023-02-11T04:02:39.387Z,-1.56
2023-02-11T04:05:09.163Z,-1.52
2023-02-11T04:07:36.978Z,-1.47
2023-02-11T04:10:05.630Z,-1.44
2023-02-11T04:12:33.470Z,-1.42
2023-02-11T04:15:01.210Z,-1.40
2023-02-11T04:17:28.989Z,-1.44
2023-02-11T04:19:56.652Z,-1.43
2023-02-11T04:22:24.388Z,-1.39
2023-02-11T04:24:52.162Z,-1.39
2023-02-11T04:27:19.921Z,-1.40
2023-02-11T04:29:47.568Z,-1.36
2023-02-11T04:32:15.796Z,-1.33
2023-02-11T04:34:43.619Z,-1.30
2023-02-11T04:37:11.287Z,-1.28
2023-02-11T04:39:39.215Z,-1.24
2023-02-11T04:42:07.040Z,-1.27
2023-02-11T04:44:34.920Z,-1.35
2023-02-11T04:47:02.714Z,-1.45
2023-02-11T04:49:30.502Z,-1.51
2023-02-11T04:51:58.185Z,-1.46
2023-02-11T04:54:25.915Z,-1.47
2023-02-11T04:56:53.621Z,-1.57
2023-02-11T04:59:21.348Z,-1.62
2023-02-11T05:01:49.052Z,-1.76
2023-02-11T05:04:17.776Z,-1.90
2023-02-11T05:06:45.572Z,-1.93
2023-02-11T05:09:14.093Z,-1.98
2023-02-11T05:11:42.046Z,-1.94
2023-02-11T05:14:09.783Z,-1.95
2023-02-11T05:16:37.614Z,-2.03
2023-02-11T05:19:05.553Z,-1.95
2023-02-11T05:21:33.419Z,-1.88
2023-02-11T05:24:01.150Z,-1.82
2023-02-11T05:26:28.921Z,-1.75
2023-02-11T05:28:57.340Z,-1.70
2023-02-11T05:31:25.066Z,-1.66
2023-02-11T05:33:52.894Z,-1.67
2023-02-11T05:36:20.601Z,-1.70
2023-02-11T05:38:48.347Z,-1.70
2023-02-11T05:41:16.078Z,-1.72
2023-02-11T05:43:43.902Z,-1.79
2023-02-11T05:46:11.684Z,-1.89
2023-02-11T05:48:39.417Z,-1.96
2023-02-11T05:51:07.119Z,-2.05
2023-02-11T05:53:34.796Z,-2.11
2023-02-11T05:56:02.660Z,-2.17
2023-02-11T05:58:30.399Z,-2.23
2023-02-11T06:00:58.172Z,-2.34
2023-02-11T06:03:25.931Z,-2.45
2023-02-11T06:05:53.608Z,-2.48
2023-02-11T06:08:21.371Z,-2.51
2023-02-11T06:10:49.140Z,-2.50
2023-02-11T06:13:19.683Z,-2.53
2023-02-11T06:15:57.374Z,-2.50
2023-02-11T06:18:25.369Z,-2.51
2023-02-11T06:20:53.331Z,-2.50
2023-02-11T06:23:21.084Z,-2.37
2023-02-11T06:25:49.420Z,-2.29
2023-02-11T06:28:17.542Z,-2.25
2023-02-11T06:30:45.593Z,-2.18
2023-02-11T06:33:13.277Z,-2.17
2023-02-11T06:35:41.224Z,-2.15
2023-02-11T06:38:08.911Z,-2.07
2023-02-11T06:40:36.673Z,-2.05
2023-02-11T06:43:04.339Z,-2.07
2023-02-11T06:45:32.057Z,-1.98
2023-02-11T06:47:59.879Z,-1.90
2023-02-11T06:50:27.608Z,-1.80
2023-02-11T06:52:55.256Z,-1.75
2023-02-11T06:55:22.914Z,-1.67
2023-02-11T06:57:50.663Z,-1.60
2023-02-11T07:00:18.734Z,-1.58
2023-02-11T07:02:46.505Z,-1.62
2023-02-11T07:05:14.342Z,-1.53
2023-02-11T07:07:41.988Z,-1.48
2023-02-11T07:10:10.448Z,-1.47
2023-02-11T07:12:38.780Z,-1.43
2023-02-11T07:15:07.349Z,-1.40
2023-02-11T07:17:36.697Z,-1.37
2023-02-11T07:20:05.289Z,-1.39
2023-02-11T07:22:32.993Z,-1.43
2023-02-11T07:25:00.732Z,-1.49
2023-02-11T07:27:28.436Z,-1.52
2023-02-11T07:29:56.046Z,-1.49
2023-02-11T07:32:23.796Z,-1.49
2023-02-11T07:34:51.725Z,-1.48
2023-02-11T07:37:20.029Z,-1.41
2023-02-11T07:39:47.810Z,-1.35
2023-02-11T07:42:15.579Z,-1.24
2023-02-11T07:44:43.270Z,-1.18
2023-02-11T07:47:10.974Z,-1.15
2023-02-11T07:49:38.731Z,-1.13
2023-02-11T07:52:06.569Z,-1.11
2023-02-11T07:54:34.267Z,-1.05
2023-02-11T07:57:01.949Z,-1.00
2023-02-11T07:59:29.661Z,-0.95
2023-02-11T08:01:57.489Z,-0.92
2023-02-11T08:04:25.175Z,-0.87
2023-02-11T08:06:55.499Z,-0.83
2023-02-11T08:09:25.013Z,-0.67
2023-02-11T08:11:52.747Z,-0.57
2023-02-11T08:14:21.705Z,-0.45
2023-02-11T08:16:49.410Z,-0.32
2023-02-11T08:19:18.496Z,-0.23
2023-02-11T08:21:46.243Z,-0.16
2023-02-11T08:24:13.992Z,-0.10
2023-02-11T08:26:42.209Z,-0.19
2023-02-11T08:29:12.862Z,-0.23
2023-02-11T08:31:43.162Z,-0.34
2023-02-11T08:34:12.637Z,-0.41
2023-02-11T08:36:41.416Z,-0.45
2023-02-11T08:39:19.668Z,-0.47
2023-02-11T08:41:50.245Z,-0.53
2023-02-11T08:44:19.406Z,-0.54
2023-02-11T08:46:48.157Z,-0.58
2023-02-11T08:49:16.421Z,-0.52
2023-02-11T08:51:44.937Z,-0.46
2023-02-11T08:54:13.210Z,-0.37
2023-02-11T08:56:41.201Z,-0.30
2023-02-11T08:59:10.372Z,-0.24
2023-02-11T09:01:38.250Z,-0.12
2023-02-11T09:04:06.511Z,-0.10
2023-02-11T09:06:34.284Z,-0.07
2023-02-11T09:09:02.117Z,-0.08
2023-02-11T09:11:33.200Z,-0.06
2023-02-11T09:14:01.872Z,0.05
2023-02-11T09:16:34.921Z,0.13
2023-02-11T09:19:04.087Z,0.18
2023-02-11T09:21:32.320Z,0.29
2023-02-11T09:24:00.297Z,0.46
2023-02-11T09:26:31.488Z,0.58
2023-02-11T09:28:59.762Z,0.73
2023-02-11T09:31:29.919Z,0.87
2023-02-11T09:34:01.745Z,0.96
2023-02-11T09:36:35.214Z,0.93
2023-02-11T09:39:05.053Z,0.97
2023-02-11T09:41:51.316Z,1.02
2023-02-11T09:44:23.459Z,1.08
2023-02-11T09:47:00.928Z,1.18
2023-02-11T09:49:45.495Z,1.21
2023-02-11T09:52:31.575Z,1.14
2023-02-11T09:55:03.331Z,1.06
2023-02-11T09:57:37.297Z,1.15
2023-02-11T10:00:18.127Z,1.23
2023-02-11T10:03:10.560Z,1.30
2023-02-11T10:06:05.628Z,1.35
2023-02-11T10:09:10.684Z,1.47
2023-02-11T10:11:58.399Z,1.57
2023-02-11T10:14:50.717Z,1.65
2023-02-11T10:17:36.240Z,1.78
2023-02-11T10:20:34.633Z,1.87
2023-02-11T10:23:11.631Z,1.87
2023-02-11T10:25:45.384Z,1.92
2023-02-11T10:28:22.245Z,1.95
2023-02-11T10:31:07.066Z,1.87
2023-02-11T10:33:50.185Z,1.91
2023-02-11T10:36:19.458Z,1.91
2023-02-11T10:38:47.564Z,1.92
2023-02-11T10:41:36.841Z,1.91
2023-02-11T10:44:08.404Z,1.91
2023-02-11T10:46:41.225Z,1.90
2023-02-11T10:49:09.081Z,1.86
2023-02-11T10:51:36.897Z,1.70
2023-02-11T10:54:20.488Z,1.65
2023-02-11T10:56:59.710Z,1.62
2023-02-11T10:59:41.283Z,1.63
2023-02-11T11:02:39.899Z,1.60
2023-02-11T11:05:21.045Z,1.47
2023-02-11T11:08:00.885Z,1.43
2023-02-11T11:10:30.448Z,1.49
2023-02-11T11:12:58.398Z,1.52
2023-02-11T11:15:31.916Z,1.60
2023-02-11T11:18:22.627Z,1.70
2023-02-11T11:21:01.302Z,1.77
2023-02-11T11:23:31.912Z,1.84
2023-02-11T11:26:12.739Z,1.93
2023-02-11T11:28:53.591Z,2.00
2023-02-11T11:31:26.057Z,1.99
2023-02-11T11:33:56.784Z,2.07
2023-02-11T11:36:33.661Z,2.16
2023-02-11T11:39:05.575Z,2.29
2023-02-11T11:41:36.005Z,2.39
2023-02-11T11:44:35.719Z,2.49
2023-02-11T11:47:12.359Z,2.60
2023-02-11T11:49:57.047Z,2.72
2023-02-11T11:52:47.643Z,2.85
2023-02-11T11:55:45.872Z,2.96
2023-02-11T11:58:24.245Z,3.05
2023-02-11T12:01:03.177Z,3.20
2023-02-11T12:03:48.132Z,3.33
2023-02-11T12:06:31.050Z,3.46
2023-02-11T12:09:01.689Z,3.60
2023-02-11T12:11:38.255Z,3.68
2023-02-11T12:14:17.280Z,3.80
2023-02-11T12:16:50.999Z,3.89
2023-02-11T12:20:01.477Z,3.94
2023-02-11T12:22:37.053Z,4.06
2023-02-11T12:25:04.961Z,4.18
2023-02-11T12:27:51.802Z,4.18
2023-02-11T12:30:29.989Z,4.30
2023-02-11T12:33:18.898Z,4.40
2023-02-11T12:36:24.214Z,4.45
2023-02-11T12:39:13.302Z,4.59
2023-02-11T12:42:44.838Z,4.73
2023-02-11T12:45:12.448Z,4.85
2023-02-11T12:48:06.122Z,4.86
2023-02-11T12:50:57.945Z,4.94
2023-02-11T12:53:37.587Z,5.02
2023-02-11T12:56:12.666Z,5.14
2023-02-11T12:58:45.408Z,5.25
2023-02-11T13:01:33.665Z,5.34
2023-02-11T13:04:12.331Z,5.44
2023-02-11T13:06:50.257Z,5.49
2023-02-11T13:09:29.247Z,5.50
2023-02-11T13:12:00.104Z,5.53
2023-02-11T13:14:27.841Z,5.59
2023-02-11T13:16:59.698Z,5.71
2023-02-11T13:19:35.909Z,5.84
2023-02-11T13:22:09.678Z,5.99
2023-02-11T13:25:03.339Z,6.14
2023-02-11T13:27:41.644Z,6.26
2023-02-11T13:30:52.316Z,6.36
2023-02-11T13:33:33.996Z,6.46
2023-02-11T13:36:04.476Z,6.60
2023-02-11T13:38:33.888Z,6.68
2023-02-11T13:41:05.121Z,6.76
2023-02-11T13:43:36.506Z,6.83
2023-02-11T13:46:13.133Z,6.92
2023-02-11T13:48:48.629Z,6.98
2023-02-11T13:51:20.151Z,7.04
2023-02-11T13:53:51.902Z,7.11
2023-02-11T13:56:29.463Z,7.18
2023-02-11T13:59:01.480Z,7.17
2023-02-11T14:02:08.234Z,7.21
2023-02-11T14:04:54.756Z,7.25
2023-02-11T14:07:52.420Z,7.29
2023-02-11T14:10:44.892Z,7.39
2023-02-11T14:13:31.417Z,7.46
2023-02-11T14:16:28.149Z,7.52
2023-02-11T14:19:03.660Z,7.60
2023-02-11T14:21:35.949Z,7.60
2023-02-11T14:24:03.643Z,7.62
2023-02-11T14:26:55.759Z,7.64
2023-02-11T14:29:38.443Z,7.63
2023-02-11T14:32:11.922Z,7.64
2023-02-11T14:34:51.360Z,7.62
2023-02-11T14:37:37.922Z,7.57
2023-02-11T14:40:29.241Z,7.51
2023-02-11T14:42:59.314Z,7.47
2023-02-11T14:45:29.938Z,7.39
2023-02-11T14:48:18.768Z,7.33
2023-02-11T14:50:53.154Z,7.23
2023-02-11T14:53:24.990Z,7.10
2023-02-11T14:55:55.230Z,6.96
2023-02-11T14:58:26.808Z,6.83
2023-02-11T15:00:56.577Z,6.70
2023-02-11T15:03:37.481Z,6.60
2023-02-11T15:06:23.633Z,6.50
2023-02-11T15:09:12.908Z,6.41
2023-02-11T15:11:43.604Z,6.34
2023-02-11T15:14:19.917Z,6.29
2023-02-11T15:16:48.633Z,6.22
2023-02-11T15:19:37.935Z,6.13
2023-02-11T15:22:08.527Z,6.06
2023-02-11T15:24:37.020Z,6.00
2023-02-11T15:27:13.930Z,5.96
2023-02-11T15:29:51.777Z,5.89
2023-02-11T15:32:22.858Z,5.85
2023-02-11T15:34:53.215Z,5.77
2023-02-11T15:37:26.906Z,5.69
2023-02-11T15:39:56.214Z,5.61
2023-02-11T15:42:32.528Z,5.54
2023-02-11T15:45:30.057Z,5.45
2023-02-11T15:48:27.700Z,5.42
2023-02-11T15:50:59.955Z,5.35
2023-02-11T15:53:32.682Z,5.28
2023-02-11T15:56:13.348Z,5.23
2023-02-11T15:58:44.579Z,5.15
2023-02-11T16:01:13.835Z,5.09
2023-02-11T16:03:43.675Z,5.03
2023-02-11T16:06:49.654Z,4.97
2023-02-11T16:09:17.336Z,4.91
2023-02-11T16:11:48.253Z,4.84
2023-02-11T16:14:40.429Z,4.80
2023-02-11T16:17:25.152Z,4.77
2023-02-11T16:19:54.790Z,4.76
2023-02-11T16:22:31.549Z,4.76
2023-02-11T16:25:01.010Z,4.75
2023-02-11T16:27:40.913Z,4.73
2023-02-11T16:30:28.957Z,4.67
2023-02-11T16:32:56.768Z,4.64
2023-02-11T16:35:24.550Z,4.65
2023-02-11T16:37:52.437Z,4.60
2023-02-11T16:40:20.242Z,4.58
2023-02-11T16:42:47.992Z,4.53
2023-02-11T16:45:16.591Z,4.52
2023-02-11T16:47:44.579Z,4.52
2023-02-11T16:50:20.728Z,4.52
2023-02-11T16:52:49.546Z,4.51
2023-02-11T16:55:17.371Z,4.47
2023-02-11T16:57:45.308Z,4.43
2023-02-11T17:00:17.296Z,4.40
2023-02-11T17:02:45.218Z,4.38
2023-02-11T17:05:24.180Z,4.36
2023-02-11T17:07:52.704Z,4.29
2023-02-11T17:10:23.775Z,4.26
2023-02-11T17:12:52.549Z,4.21
2023-02-11T17:15:20.293Z,4.15
2023-02-11T17:17:48.066Z,4.16
2023-02-11T17:20:16.541Z,4.14
2023-02-11T17:22:44.381Z,4.12
2023-02-11T17:25:12.567Z,4.17
2023-02-11T17:27:40.486Z,4.22
2023-02-11T17:30:09.093Z,4.32
2023-02-11T17:32:38.024Z,4.42
2023-02-11T17:35:09.281Z,4.50
2023-02-11T17:37:37.177Z,4.58
2023-02-11T17:40:05.055Z,4.66
2023-02-11T17:45:00.463Z,4.73
2023-02-11T17:47:28.144Z,4.80
2023-02-11T17:49:55.954Z,4.79
2023-02-11T17:52:25.385Z,4.71
2023-02-11T17:54:53.128Z,4.69
2023-02-11T17:57:21.265Z,4.72
2023-02-11T17:59:49.074Z,4.62
2023-02-11T18:02:16.930Z,4.59
2023-02-11T18:04:45.665Z,4.88
2023-02-11T18:07:13.775Z,4.82
2023-02-11T18:09:42.053Z,4.84
2023-02-11T18:12:10.457Z,4.86
2023-02-11T18:14:42.088Z,4.85
2023-02-11T18:17:10.053Z,4.82
2023-02-11T18:19:38.718Z,4.78
2023-02-11T18:22:06.570Z,4.75
2023-02-11T18:24:34.284Z,4.68
2023-02-11T18:27:02.372Z,4.64
2023-02-11T18:29:30.082Z,4.53
2023-02-11T18:31:58.322Z,4.48
2023-02-11T18:34:27.106Z,4.36
2023-02-11T18:36:55.311Z,4.26
2023-02-11T18:39:25.500Z,4.17
2023-02-11T18:41:57.798Z,4.06
2023-02-11T18:44:26.059Z,3.99
2023-02-11T18:46:54.573Z,3.93
2023-02-11T18:49:22.336Z,3.88
2023-02-11T18:51:50.148Z,3.81
2023-02-11T18:54:17.960Z,3.76
2023-02-11T18:56:45.735Z,3.65
2023-02-11T18:59:13.800Z,3.59
2023-02-11T19:01:44.545Z,3.50
2023-02-11T19:04:12.533Z,3.53
2023-02-11T19:06:40.633Z,3.53
2023-02-11T19:09:11.404Z,3.51
2023-02-11T19:11:51.317Z,3.45
2023-02-11T19:14:32.604Z,3.43
2023-02-11T19:17:02.664Z,3.38
2023-02-11T19:19:32.904Z,3.24
2023-02-11T19:22:02.055Z,3.14
2023-02-11T19:24:31.002Z,3.02
2023-02-11T19:27:01.271Z,2.91
2023-02-11T19:29:29.965Z,2.79
2023-02-11T19:31:57.717Z,2.67
2023-02-11T19:34:25.597Z,2.58
2023-02-11T19:36:55.313Z,2.48
2023-02-11T19:39:25.063Z,2.37
2023-02-11T19:41:53.574Z,2.26
2023-02-11T19:44:21.384Z,2.14
2023-02-11T19:46:51.378Z,2.02
2023-02-11T19:49:24.036Z,1.89
2023-02-11T19:51:53.263Z,1.79
2023-02-11T19:54:21.582Z,1.70
2023-02-11T19:56:49.983Z,1.61
2023-02-11T19:59:17.873Z,1.51
2023-02-11T20:01:48.611Z,1.44
2023-02-11T20:04:19.217Z,1.35
2023-02-11T20:06:49.427Z,1.28
2023-02-11T20:09:17.368Z,1.23
2023-02-11T20:11:45.627Z,1.18
2023-02-11T20:14:15.777Z,1.11
2023-02-11T20:16:49.289Z,1.02
2023-02-11T20:19:20.441Z,0.97
2023-02-11T20:21:50.086Z,0.96
2023-02-11T20:24:19.818Z,0.92
2023-02-11T20:26:49.329Z,0.94
2023-02-11T20:29:18.680Z,0.93
2023-02-11T20:31:46.897Z,0.91
2023-02-11T20:34:14.700Z,0.88
2023-02-11T20:36:42.692Z,0.87
2023-02-11T20:39:12.250Z,0.85
2023-02-11T20:41:40.905Z,0.85
2023-02-11T20:44:11.587Z,0.81
2023-02-11T20:46:42.965Z,0.80
2023-02-11T20:49:20.728Z,0.81
2023-02-11T20:51:48.564Z,0.81
2023-02-11T20:54:19.831Z,0.78
2023-02-11T20:56:49.130Z,0.76
2023-02-11T20:59:17.878Z,0.68
2023-02-11T21:01:49.879Z,0.64
2023-02-11T21:04:21.235Z,0.60
2023-02-11T21:06:51.659Z,0.60
2023-02-11T21:09:23.049Z,0.55
2023-02-11T21:11:52.779Z,0.52
2023-02-11T21:14:22.239Z,0.49
2023-02-11T21:16:50.431Z,0.44
2023-02-11T21:19:18.137Z,0.41
2023-02-11T21:21:45.830Z,0.40
2023-02-11T21:24:13.960Z,0.37
2023-02-11T21:26:41.827Z,0.34
2023-02-11T21:29:09.806Z,0.32
2023-02-11T21:31:38.230Z,0.30
2023-02-11T21:34:07.047Z,0.27
2023-02-11T21:36:35.129Z,0.23
2023-02-11T21:39:04.906Z,0.21
2023-02-11T21:41:32.919Z,0.20
2023-02-11T21:44:00.610Z,0.19
2023-02-11T21:46:30.362Z,0.15
2023-02-11T21:48:59.370Z,0.15
2023-02-11T21:51:27.530Z,0.12
2023-02-11T21:54:02.398Z,0.10
2023-02-11T21:56:32.415Z,0.10
2023-02-11T21:59:00.868Z,0.10
2023-02-11T22:01:34.065Z,0.09
2023-02-11T22:04:01.750Z,0.08
2023-02-11T22:06:32.137Z,0.08
2023-02-11T22:09:02.827Z,0.43
2023-02-11T22:11:30.583Z,0.75
2023-02-11T22:13:58.976Z,1.05
2023-02-11T22:16:28.756Z,1.33
2023-02-11T22:18:59.517Z,1.60
2023-02-11T22:21:28.134Z,1.83
2023-02-11T22:23:57.037Z,2.17
2023-02-11T22:26:26.866Z,2.48
2023-02-11T22:28:54.912Z,2.76
2023-02-11T22:31:29.685Z,3.04
2023-02-11T22:33:58.598Z,3.28
2023-02-11T22:36:29.358Z,3.50
2023-02-11T22:39:00.505Z,3.62
2023-02-11T22:41:28.339Z,3.77
2023-02-11T22:43:56.030Z,3.92
2023-02-11T22:46:23.855Z,4.01
2023-02-11T22:48:52.427Z,3.99
2023-02-11T22:51:23.378Z,3.85
2023-02-11T22:53:59.263Z,3.71
2023-02-11T22:56:28.257Z,3.52
2023-02-11T22:58:59.656Z,3.40
2023-02-11T23:01:28.027Z,3.24
2023-02-11T23:03:55.959Z,3.05
2023-02-11T23:06:24.039Z,2.92
2023-02-11T23:08:51.864Z,2.78
2023-02-11T23:11:22.752Z,2.60
2023-02-11T23:13:53.024Z,2.42
2023-02-11T23:16:24.089Z,2.28
2023-02-11T23:18:52.517Z,2.11
2023-02-11T23:21:30.359Z,1.98
2023-02-11T23:24:05.168Z,1.80
2023-02-11T23:26:33.225Z,1.69
2023-02-11T23:29:01.381Z,1.52
2023-02-11T23:31:31.957Z,1.26
2023-02-11T23:33:59.616Z,1.04
2023-02-11T23:36:27.737Z,0.87
2023-02-11T23:38:55.535Z,0.83
2023-02-11T23:41:24.362Z,0.84
2023-02-11T23:43:53.858Z,0.78
2023-02-11T23:46:25.591Z,0.69
2023-02-11T23:48:54.275Z,0.62
2023-02-11T23:51:22.294Z,0.63
2023-02-11T23:53:50.841Z,0.64
2023-02-11T23:56:20.926Z,0.62
2023-02-11T23:58:53.935Z,0.64
